Time;durP1;ratioP1;P1;durP2;ratioP2;P2;SDS_P1;SDS_P2;PMS_P1;PMS_P2;Temp;Humidity;BMP_temperature;BMP_pressure;BME280_temperature;BME280_humidity;BME280_pressure;Samples;Min_cycle;Max_cycle;Signal;HPM_P1;HPM_P2
2024/02/24 02:47:38;;;;;;;26.20;12.10;;;;;;;11.43;76.24;101126.50;106315;1259;70406;-81
2024/02/24 02:50:12;;;;;;;17.30;8.60;;;;;;;11.33;76.86;101128.70;106290;1259;60536;-81
2024/02/24 02:52:46;;;;;;;18.20;8.90;;;;;;;11.29;77.32;101129.95;106305;1257;60294;-81
2024/02/24 02:55:20;;;;;;;20.50;8.80;;;;;;;11.35;76.98;101131.02;106342;1254;72615;-81
2024/02/24 02:57:54;;;;;;;19.00;9.00;;;;;;;11.41;76.62;101130.77;106496;1260;67427;-81
2024/02/24 03:00:28;;;;;;;17.30;8.50;;;;;;;11.39;76.66;101130.31;106301;1253;71439;-81
2024/02/24 03:03:02;;;;;;;19.20;9.20;;;;;;;11.38;76.90;101129.70;106353;1257;60496;-81
2024/02/24 03:05:36;;;;;;;21.80;9.60;;;;;;;11.38;76.93;101124.73;106329;1253;60577;-81
2024/02/24 03:08:10;;;;;;;15.80;9.00;;;;;;;11.43;76.67;101124.30;106304;1254;74185;-81
2024/02/24 03:10:44;;;;;;;18.00;8.40;;;;;;;11.43;76.31;101123.65;106325;1253;68398;-81
2024/02/24 03:13:17;;;;;;;16.40;8.60;;;;;;;11.46;76.23;101132.42;106147;1257;71377;-81
2024/02/24 03:15:51;;;;;;;16.80;9.50;;;;;;;11.47;75.89;101128.30;106365;1254;60306;-81
2024/02/24 03:18:25;;;;;;;17.90;9.20;;;;;;;11.48;75.59;101124.48;106445;1258;60409;-81
2024/02/24 03:20:59;;;;;;;15.60;8.30;;;;;;;11.48;75.36;101130.95;106398;1254;72817;-81
2024/02/24 03:23:33;;;;;;;15.60;8.00;;;;;;;11.54;75.00;101135.67;106317;1259;68768;-81
2024/02/24 03:26:07;;;;;;;17.00;8.70;;;;;;;11.54;74.88;101134.36;106306;1254;71410;-81
2024/02/24 03:28:40;;;;;;;16.60;8.60;;;;;;;11.54;74.76;101133.31;106217;1253;60543;-81
2024/02/24 03:31:14;;;;;;;18.00;8.80;;;;;;;11.56;74.18;101128.67;106051;1254;60687;-81
2024/02/24 03:33:48;;;;;;;18.30;9.10;;;;;;;11.59;73.83;101130.48;106453;1254;73866;-81
2024/02/24 03:36:22;;;;;;;17.30;9.00;;;;;;;11.59;73.38;101125.79;106401;1252;67572;-82
2024/02/24 03:38:56;;;;;;;17.00;8.80;;;;;;;11.59;73.13;101124.69;106365;1254;71176;-81
2024/02/24 03:41:31;;;;;;;17.10;9.00;;;;;;;11.57;73.36;101128.95;106385;1253;60344;-82
2024/02/24 03:44:05;;;;;;;20.90;9.10;;;;;;;11.56;73.20;101130.54;106490;1254;60472;-81
2024/02/24 03:46:39;;;;;;;16.70;8.60;;;;;;;11.52;73.35;101128.01;106295;1253;73853;-82
2024/02/24 03:49:13;;;;;;;18.30;8.40;;;;;;;11.52;73.46;101125.38;106128;1254;68764;-82
2024/02/24 03:51:47;;;;;;;19.00;8.80;;;;;;;11.54;73.34;101126.92;106457;1259;72662;-82
2024/02/24 03:54:22;;;;;;;18.20;9.70;;;;;;;11.52;73.34;101126.59;106257;1256;60446;-81
2024/02/24 03:56:56;;;;;;;20.20;9.60;;;;;;;11.50;73.36;101125.05;106398;1254;60546;-82
2024/02/24 03:59:30;;;;;;;18.10;9.10;;;;;;;11.48;73.14;101125.41;106244;1257;73811;-81
2024/02/24 04:02:04;;;;;;;20.40;10.20;;;;;;;11.47;73.49;101126.56;106397;1254;68682;-81
2024/02/24 04:04:37;;;;;;;20.30;10.50;;;;;;;11.45;73.68;101126.89;106279;1254;71682;-82
2024/02/24 04:07:12;;;;;;;19.00;9.30;;;;;;;11.47;73.57;101126.77;106111;1260;60533;-82
2024/02/24 04:09:46;;;;;;;17.20;9.10;;;;;;;11.45;73.79;101129.80;106428;1255;60517;-82
2024/02/24 04:12:20;;;;;;;18.00;9.60;;;;;;;11.45;73.63;101131.86;106420;1254;72607;-81
2024/02/24 04:14:54;;;;;;;22.10;11.60;;;;;;;11.48;73.49;101126.61;106214;1256;67430;-82
2024/02/24 04:17:27;;;;;;;21.70;10.90;;;;;;;11.49;73.60;101123.88;106262;1257;71501;-82
2024/02/24 04:20:01;;;;;;;30.50;13.70;;;;;;;11.44;74.45;101127.48;106485;1254;60450;-81
2024/02/24 04:22:35;;;;;;;26.90;13.40;;;;;;;11.40;74.87;101134.86;106405;1254;61079;-81
2024/02/24 04:25:09;;;;;;;22.70;12.90;;;;;;;11.29;75.44;101143.02;106082;1253;73940;-82
2024/02/24 04:27:43;;;;;;;24.30;12.90;;;;;;;11.20;76.14;101147.19;106303;1257;68394;-81
2024/02/24 04:30:17;;;;;;;22.70;12.90;;;;;;;11.09;77.33;101148.02;106258;1258;73145;-82
2024/02/24 04:32:51;;;;;;;24.90;12.70;;;;;;;10.98;78.24;101144.20;106626;1254;60603;-82
2024/02/24 04:35:25;;;;;;;22.70;12.60;;;;;;;10.86;79.85;101149.64;106579;1254;60469;-81
2024/02/24 04:37:59;;;;;;;26.80;13.40;;;;;;;10.70;81.33;101146.70;107995;1253;73919;-82
2024/02/24 04:40:34;;;;;;;24.80;14.00;;;;;;;10.61;82.54;101142.70;106314;1253;67265;-82
2024/02/24 04:43:08;;;;;;;27.90;15.30;;;;;;;10.58;83.64;101144.54;106382;1257;73717;-81
2024/02/24 04:45:48;;;;;;;25.10;13.00;;;;;;;10.51;84.87;101144.55;106179;1253;60492;-82
2024/02/24 04:48:22;;;;;;;22.40;12.70;;;;;;;10.43;86.06;101150.39;106266;1254;60695;-83
2024/02/24 04:51:03;;;;;;;22.20;12.60;;;;;;;10.36;86.96;101157.92;106453;1255;73896;-82
2024/02/24 04:53:43;;;;;;;21.60;12.80;;;;;;;10.37;87.47;101160.55;106383;1254;68529;-82
2024/02/24 04:56:23;;;;;;;24.20;13.50;;;;;;;10.40;87.96;101159.43;106463;1254;72724;-83
2024/02/24 04:59:03;;;;;;;24.30;13.70;;;;;;;10.41;88.40;101157.36;106347;1254;60425;-82
2024/02/24 05:01:43;;;;;;;23.00;12.70;;;;;;;10.38;89.11;101154.92;106342;1252;60262;-82
2024/02/24 05:04:23;;;;;;;21.20;11.90;;;;;;;10.37;89.84;101157.00;106387;1253;73610;-82
2024/02/24 05:07:03;;;;;;;23.10;12.90;;;;;;;10.42;89.49;101156.70;106336;1254;68712;-82
2024/02/24 05:09:43;;;;;;;23.40;12.90;;;;;;;10.39;90.06;101161.70;106249;1254;72687;-82
2024/02/24 05:12:23;;;;;;;25.00;14.00;;;;;;;10.37;90.85;101164.42;106507;1254;60865;-82
2024/02/24 05:14:56;;;;;;;24.40;14.40;;;;;;;10.46;90.65;101162.26;106283;1254;60450;-82
2024/02/24 05:17:30;;;;;;;25.20;13.90;;;;;;;10.53;90.65;101162.70;106348;1254;72397;-82
2024/02/24 05:20:07;;;;;;;23.90;13.90;;;;;;;10.59;90.77;101166.85;106348;1254;67713;-82
2024/02/24 05:22:41;;;;;;;22.80;12.90;;;;;;;10.62;91.15;101166.50;106301;1252;71374;-82
2024/02/24 05:25:16;;;;;;;23.30;11.70;;;;;;;10.70;91.45;101168.39;106257;1254;60548;-82
2024/02/24 05:27:50;;;;;;;21.30;11.10;;;;;;;10.86;90.98;101170.09;106319;1259;60067;-82
2024/02/24 05:30:24;;;;;;;21.20;11.20;;;;;;;10.94;90.77;101167.47;106298;1254;72634;-82
2024/02/24 05:32:58;;;;;;;20.40;11.00;;;;;;;11.02;90.51;101168.28;106471;1253;67003;-82
2024/02/24 05:35:32;;;;;;;18.80;9.20;;;;;;;11.13;89.56;101174.30;106255;1257;72745;-82
2024/02/24 05:38:05;;;;;;;15.90;9.10;;;;;;;11.24;88.82;101177.15;106252;1254;60905;-82
2024/02/24 05:40:33;;;;;;;15.50;9.20;;;;;;;11.34;88.25;101176.70;106265;1254;60306;-83
2024/02/24 05:43:07;;;;;;;17.80;10.30;;;;;;;11.42;87.35;101182.33;106332;1253;73183;-83
2024/02/24 05:45:41;;;;;;;17.30;10.60;;;;;;;11.53;86.47;101180.72;106265;1258;66993;-82
2024/02/24 05:48:15;;;;;;;19.60;10.30;;;;;;;11.68;85.23;101181.45;106256;1254;70120;-82
2024/02/24 05:50:49;;;;;;;20.70;10.70;;;;;;;11.79;84.03;101182.34;106380;1254;60537;-83
2024/02/24 05:53:23;;;;;;;21.80;11.00;;;;;;;11.86;83.36;101186.96;106246;1254;60431;-83
2024/02/24 05:55:57;;;;;;;22.20;11.80;;;;;;;11.92;81.86;101184.39;106298;1254;73838;-82
2024/02/24 05:58:31;;;;;;;21.80;12.40;;;;;;;12.00;81.52;101189.55;106381;1258;67167;-82
2024/02/24 06:01:05;;;;;;;22.90;13.20;;;;;;;12.12;80.96;101191.16;106285;1254;72700;-82
2024/02/24 06:03:38;;;;;;;22.10;12.10;;;;;;;12.22;80.05;101191.83;106282;1254;60516;-82
2024/02/24 06:06:13;;;;;;;22.10;11.70;;;;;;;12.20;79.86;101195.60;106302;1254;61965;-83
2024/02/24 06:08:47;;;;;;;24.50;12.50;;;;;;;12.26;79.50;101195.66;106485;1254;73768;-82
2024/02/24 06:11:21;;;;;;;22.10;12.20;;;;;;;12.40;78.48;101199.34;106338;1254;68851;-83
2024/02/24 06:13:55;;;;;;;23.10;12.40;;;;;;;12.43;78.32;101198.92;106259;1259;71402;-82
2024/02/24 06:16:29;;;;;;;23.70;12.80;;;;;;;12.49;77.72;101205.61;106683;1254;60571;-82
2024/02/24 06:19:02;;;;;;;26.90;12.60;;;;;;;12.50;77.58;101206.48;106265;1253;60437;-83
2024/02/24 06:21:36;;;;;;;22.10;12.60;;;;;;;12.52;77.52;101208.35;106289;1254;71641;-83
2024/02/24 06:24:10;;;;;;;23.10;11.30;;;;;;;12.59;77.11;101210.98;106602;1256;67164;-82
2024/02/24 06:26:44;;;;;;;20.00;11.50;;;;;;;12.75;76.18;101208.72;106339;1254;71459;-83
2024/02/24 06:29:18;;;;;;;21.60;11.20;;;;;;;12.88;74.69;101208.60;106288;1254;60422;-82
2024/02/24 06:31:52;;;;;;;21.80;12.00;;;;;;;12.92;74.15;101212.92;106497;1253;60492;-82
2024/02/24 06:34:26;;;;;;;22.20;11.00;;;;;;;12.93;74.09;101216.33;106404;1254;72973;-83
2024/02/24 06:37:00;;;;;;;21.40;10.80;;;;;;;13.06;73.21;101213.35;106395;1256;66283;-82
2024/02/24 06:39:33;;;;;;;22.20;11.70;;;;;;;13.17;72.63;101216.39;106303;1254;72666;-82
2024/02/24 06:42:07;;;;;;;19.00;11.70;;;;;;;13.25;71.71;101214.79;106405;1256;60438;-82
2024/02/24 06:44:41;;;;;;;30.60;18.50;;;;;;;13.25;72.13;101212.75;106401;1254;60511;-82
2024/02/24 06:47:15;;;;;;;23.40;12.00;;;;;;;13.31;72.24;101219.73;106405;1257;73838;-82
2024/02/24 06:49:57;;;;;;;34.90;18.00;;;;;;;13.41;70.90;101223.98;106314;1254;67488;-82
2024/02/24 06:52:32;;;;;;;32.20;17.20;;;;;;;13.46;70.27;101227.54;106397;1254;75116;-82
2024/02/24 06:55:08;;;;;;;23.80;12.90;;;;;;;13.61;69.55;101225.13;106344;1254;60527;-82
2024/02/24 06:57:36;;;;;;;21.30;11.20;;;;;;;13.69;69.64;101228.34;106357;1253;60341;-82
2024/02/24 07:00:12;;;;;;;21.10;11.20;;;;;;;13.66;70.64;101231.48;106273;1256;72589;-82
2024/02/24 07:02:47;;;;;;;18.50;10.80;;;;;;;13.64;71.48;101238.29;106504;1254;69546;-83
2024/02/24 07:05:23;;;;;;;19.30;10.90;;;;;;;13.69;71.68;101234.04;106431;1257;71404;-83
2024/02/24 07:07:57;;;;;;;22.00;11.80;;;;;;;13.67;72.41;101235.09;106273;1257;60457;-83
2024/02/24 07:10:26;;;;;;;19.50;10.90;;;;;;;13.65;73.25;101233.13;106541;1254;60405;-82
2024/02/24 07:13:02;;;;;;;21.80;12.00;;;;;;;13.70;73.14;101233.92;106454;1254;73855;-82
2024/02/24 07:15:37;;;;;;;21.60;11.30;;;;;;;13.77;72.66;101233.34;106518;1254;67670;-82
2024/02/24 07:18:05;;;;;;;19.90;11.40;;;;;;;13.76;71.84;101226.81;106545;1254;72522;-82
2024/02/24 07:20:41;;;;;;;20.70;10.80;;;;;;;13.72;72.19;101236.28;106539;1253;60457;-82
2024/02/24 07:23:16;;;;;;;20.70;11.10;;;;;;;13.78;71.62;101240.92;106438;1254;60444;-87
2024/02/24 07:25:50;;;;;;;18.70;11.00;;;;;;;13.69;71.85;101244.36;106322;1258;73784;-82
2024/02/24 07:28:21;;;;;;;18.50;10.60;;;;;;;13.67;72.52;101248.27;106319;1254;66140;-83
2024/02/24 07:30:59;;;;;;;16.90;10.10;;;;;;;13.69;72.53;101244.00;106240;1259;72730;-82
2024/02/24 07:33:35;;;;;;;18.60;10.90;;;;;;;13.75;72.58;101235.67;106351;1252;60463;-86
2024/02/24 07:36:10;;;;;;;20.00;11.60;;;;;;;13.68;73.64;101233.71;106428;1253;60411;-83
2024/02/24 07:38:44;;;;;;;18.70;11.40;;;;;;;13.71;73.76;101236.12;106469;1254;74330;-86
2024/02/24 07:41:21;;;;;;;22.60;11.90;;;;;;;13.74;74.09;101237.04;106206;1254;68689;-83
2024/02/24 07:43:58;;;;;;;18.80;11.40;;;;;;;13.75;74.33;101233.68;106372;1254;71620;-83
2024/02/24 07:46:33;;;;;;;19.90;11.00;;;;;;;13.69;75.84;101231.46;106339;1254;60573;-83
2024/02/24 07:49:01;;;;;;;21.40;11.40;;;;;;;13.73;76.51;101230.73;106340;1254;60374;-81
2024/02/24 07:51:38;;;;;;;18.80;11.60;;;;;;;13.83;75.86;101228.88;106292;1253;73930;-83
2024/02/24 07:54:14;;;;;;;18.90;11.00;;;;;;;13.80;76.92;101225.60;106548;1251;68481;-83
2024/02/24 07:56:49;;;;;;;23.10;11.70;;;;;;;13.75;77.46;101221.33;106543;1254;71076;-83
2024/02/24 07:59:18;;;;;;;21.70;11.90;;;;;;;13.77;77.67;101218.84;106756;1253;60475;-83
2024/02/24 08:01:53;;;;;;;30.20;16.40;;;;;;;13.80;77.54;101225.80;106526;1252;60440;-83
2024/02/24 08:04:28;;;;;;;19.30;11.90;;;;;;;13.90;76.90;101226.96;106448;1257;76015;-85
2024/02/24 08:07:02;;;;;;;20.90;11.80;;;;;;;14.01;76.15;101229.93;106627;1256;71571;-84
2024/02/24 08:09:32;;;;;;;21.80;12.20;;;;;;;14.01;76.17;101226.48;106431;1254;73579;-85
2024/02/24 08:12:08;;;;;;;26.80;14.10;;;;;;;14.06;75.67;101230.45;106349;1256;60855;-82
2024/02/24 08:14:43;;;;;;;42.80;21.00;;;;;;;14.09;74.72;101230.27;106496;1255;60376;-82
2024/02/24 08:17:17;;;;;;;20.50;11.10;;;;;;;14.24;73.69;101226.77;106373;1254;73834;-82
2024/02/24 08:19:47;;;;;;;21.20;11.10;;;;;;;14.44;69.07;101224.43;106305;1254;68400;-85
2024/02/24 08:22:22;;;;;;;17.80;11.30;;;;;;;14.57;66.79;101227.42;106404;1254;72747;-85
2024/02/24 08:24:57;;;;;;;21.50;11.60;;;;;;;14.70;65.32;101230.75;106460;1257;60530;-85
2024/02/24 08:27:31;;;;;;;22.70;11.80;;;;;;;14.78;63.94;101230.02;106351;1253;60556;-85
2024/02/24 08:30:03;;;;;;;22.60;11.90;;;;;;;14.77;63.22;101230.23;106323;1254;73854;-85
2024/02/24 08:32:40;;;;;;;21.20;11.30;;;;;;;14.73;63.04;101232.59;106503;1258;70855;-83
2024/02/24 08:35:19;;;;;;;18.90;9.70;;;;;;;14.66;63.11;101234.89;106317;1254;72654;-85
2024/02/24 08:37:53;;;;;;;20.10;10.20;;;;;;;14.67;62.49;101236.55;106391;1254;60380;-83
2024/02/24 08:40:24;;;;;;;20.60;9.90;;;;;;;14.66;61.96;101240.35;106509;1256;60549;-84
2024/02/24 08:43:01;;;;;;;18.60;10.60;;;;;;;14.60;62.41;101241.50;106427;1251;72698;-84
2024/02/24 08:45:38;;;;;;;16.70;10.10;;;;;;;14.60;61.46;101238.31;106389;1258;71318;-84
2024/02/24 08:48:12;;;;;;;18.50;10.00;;;;;;;14.65;61.27;101235.96;106400;1254;71468;-83
2024/02/24 08:50:43;;;;;;;17.40;10.30;;;;;;;14.73;61.58;101240.57;106433;1256;60469;-84
2024/02/24 08:53:20;;;;;;;15.80;9.00;;;;;;;14.79;61.82;101239.25;106329;1252;60489;-83
2024/02/24 08:55:57;;;;;;;13.40;8.60;;;;;;;14.91;61.43;101239.25;106330;1255;71400;-84
2024/02/24 08:58:31;;;;;;;14.10;8.60;;;;;;;15.02;60.02;101241.23;106328;1254;68748;-84
2024/02/24 09:01:02;;;;;;;13.60;7.80;;;;;;;15.03;58.61;101234.64;106479;1254;72525;-84
2024/02/24 09:03:39;;;;;;;12.70;8.10;;;;;;;15.04;58.63;101234.67;106306;1254;60483;-84
2024/02/24 09:06:16;;;;;;;16.30;9.20;;;;;;;15.12;57.60;101238.95;106346;1254;60510;-84
2024/02/24 09:08:50;;;;;;;17.80;8.20;;;;;;;15.11;57.06;101234.82;106315;1253;72549;-86
2024/02/24 09:11:22;;;;;;;13.40;7.60;;;;;;;15.14;56.68;101236.23;106407;1251;68462;-86
2024/02/24 09:13:59;;;;;;;15.30;8.30;;;;;;;15.07;56.26;101239.11;106373;1254;73231;-84
2024/02/24 09:16:36;;;;;;;13.80;8.00;;;;;;;14.95;56.17;101241.64;106152;1259;60530;-86
2024/02/24 09:19:10;;;;;;;15.40;7.90;;;;;;;14.89;56.63;101238.57;106985;1253;61086;-86
2024/02/24 09:21:41;;;;;;;13.10;7.40;;;;;;;14.83;56.50;101235.19;106480;1252;74138;-86
2024/02/24 09:24:18;;;;;;;16.20;8.20;;;;;;;14.79;56.93;101244.10;106508;1256;69640;-86
2024/02/24 09:26:55;;;;;;;20.20;9.10;;;;;;;14.64;57.30;101236.08;106447;1254;71420;-86
2024/02/24 09:29:29;;;;;;;16.20;7.70;;;;;;;14.56;57.64;101238.95;106848;1253;60408;-87
2024/02/24 09:32:02;;;;;;;15.00;7.90;;;;;;;14.56;57.69;101242.30;106421;1253;60318;-86
2024/02/24 09:34:40;;;;;;;12.30;7.30;;;;;;;14.53;57.29;101239.50;106438;1254;73895;-83
2024/02/24 09:37:19;;;;;;;13.30;7.10;;;;;;;14.57;57.20;101239.21;106339;1251;70774;-83
2024/02/24 09:39:55;;;;;;;13.30;7.60;;;;;;;14.55;57.05;101240.88;106451;1256;72908;-84
2024/02/24 09:42:27;;;;;;;14.50;7.50;;;;;;;14.56;57.30;101236.14;106455;1251;60430;-84
2024/02/24 09:45:02;;;;;;;18.10;9.70;;;;;;;14.56;56.61;101238.44;106372;1256;60510;-84
2024/02/24 09:47:38;;;;;;;13.90;7.80;;;;;;;14.62;57.53;101241.15;106160;1259;74942;-86
2024/02/24 09:50:12;;;;;;;15.00;7.50;;;;;;;14.71;57.19;101234.81;106334;1254;69149;-84
2024/02/24 09:52:42;;;;;;;12.50;7.40;;;;;;;14.74;57.89;101234.02;106322;1254;72656;-84
2024/02/24 09:55:17;;;;;;;15.20;7.60;;;;;;;14.86;57.69;101230.00;106317;1257;61055;-84
2024/02/24 09:57:55;;;;;;;13.10;7.20;;;;;;;15.00;56.68;101230.41;106460;1254;62029;-84
2024/02/24 10:00:30;;;;;;;16.00;7.20;;;;;;;15.11;56.12;101227.94;106343;1252;72883;-85
2024/02/24 10:02:58;;;;;;;11.30;6.90;;;;;;;15.26;56.52;101224.48;106390;1254;69757;-87
2024/02/24 10:05:36;;;;;;;12.50;7.30;;;;;;;15.38;57.18;101222.27;106343;1254;72737;-87
2024/02/24 10:08:12;;;;;;;11.80;8.00;;;;;;;15.48;56.93;101220.15;106426;1251;60852;-87
2024/02/24 10:10:47;;;;;;;14.30;7.80;;;;;;;15.55;56.45;101221.13;106274;1253;62347;-86
2024/02/24 10:13:20;;;;;;;15.00;7.20;;;;;;;15.53;55.05;101222.25;106394;1251;73866;-84
2024/02/24 10:15:55;;;;;;;;;;;;;;;15.53;55.18;101221.20;106437;1259;71031;-84
2024/02/24 10:18:32;;;;;;;14.00;9.00;;;;;;;15.49;55.73;101225.42;106359;1254;74861;-84
2024/02/24 10:21:06;;;;;;;15.80;7.70;;;;;;;15.59;55.61;101227.79;106365;1254;60376;-87
2024/02/24 10:23:36;;;;;;;14.00;7.70;;;;;;;15.62;55.08;101228.31;106411;1258;60482;-87
2024/02/24 10:26:11;;;;;;;13.40;7.50;;;;;;;15.62;55.15;101229.24;106280;1253;73894;-87
2024/02/24 10:28:47;;;;;;;12.20;6.90;;;;;;;15.67;53.85;101227.52;106271;1254;70013;-86
2024/02/24 10:31:15;;;;;;;19.30;8.30;;;;;;;15.69;54.29;101231.65;106371;1252;72699;-86
2024/02/24 10:33:47;;;;;;;12.00;6.40;;;;;;;15.74;54.88;101229.02;106481;1254;62012;-85
2024/02/24 10:36:21;;;;;;;12.50;6.20;;;;;;;15.90;54.74;101228.04;106302;1252;60485;-87
2024/02/24 10:38:55;;;;;;;13.40;7.60;;;;;;;16.04;53.88;101229.02;106346;1254;73879;-86
2024/02/24 10:41:23;;;;;;;11.60;6.20;;;;;;;16.09;52.83;101231.52;106427;1254;71171;-87
2024/02/24 10:44:02;;;;;;;13.30;6.40;;;;;;;16.11;52.63;101223.66;106392;1254;72751;-87
2024/02/24 14:45:52;;;;;;;16.90;8.60;;;;;;;15.00;55.73;101255.46;106632;1254;75799;-87
2024/02/24 14:48:33;;;;;;;13.00;7.00;;;;;;;14.95;56.78;101261.45;106420;1254;71171;-86
2024/02/24 14:51:08;;;;;;;13.60;7.30;;;;;;;14.86;57.21;101266.04;106637;1254;72265;-84
2024/02/24 14:53:42;;;;;;;15.50;8.20;;;;;;;14.86;57.75;101267.05;106525;1254;62193;-86
2024/02/24 14:56:22;;;;;;;32.30;17.90;;;;;;;14.78;58.40;101272.93;106417;1254;61284;-87
2024/02/24 14:59:02;;;;;;;35.40;22.80;;;;;;;14.67;59.00;101268.46;106257;1264;75793;-85
2024/02/24 15:01:36;;;;;;;19.90;10.80;;;;;;;14.66;59.52;101272.98;106584;1256;69482;-85
2024/02/24 15:04:10;;;;;;;99.20;48.20;;;;;;;14.63;60.07;101269.38;106304;1259;74900;-87
2024/02/24 15:06:49;;;;;;;33.40;18.40;;;;;;;14.60;60.80;101277.48;106410;1254;62608;-85
2024/02/24 15:09:30;;;;;;;21.70;11.80;;;;;;;14.58;61.15;101283.27;106352;1253;60636;-86
2024/02/24 15:12:04;;;;;;;17.50;9.90;;;;;;;14.48;62.50;101292.53;106384;1259;75551;-85
2024/02/24 15:14:38;;;;;;;16.50;9.70;;;;;;;14.40;62.92;101296.89;106361;1254;70330;-86
2024/02/24 15:17:18;;;;;;;21.30;13.20;;;;;;;14.35;63.65;101300.20;106389;1257;74835;-85
2024/02/24 15:19:58;;;;;;;21.50;11.50;;;;;;;14.30;64.04;101295.96;106351;1257;62420;-85
2024/02/24 15:22:36;;;;;;;14.70;8.30;;;;;;;14.28;64.76;101293.98;106449;1260;61008;-86
2024/02/24 15:25:11;;;;;;;15.60;8.20;;;;;;;14.20;65.68;101297.05;106171;1253;73065;-87
2024/02/24 15:27:52;;;;;;;17.30;8.90;;;;;;;14.12;66.37;101296.93;106452;1253;69904;-85
2024/02/24 15:30:32;;;;;;;18.00;8.90;;;;;;;14.04;66.87;101301.91;106548;1259;75333;-91
2024/02/24 15:33:06;;;;;;;18.70;10.10;;;;;;;13.94;67.91;101302.07;106549;1255;60537;-84
2024/02/24 15:35:40;;;;;;;18.60;8.30;;;;;;;13.90;68.40;101302.91;106427;1258;62475;-87
2024/02/24 15:38:20;;;;;;;15.80;7.20;;;;;;;13.88;68.80;101308.79;106496;1257;75807;-87
2024/02/24 15:41:00;;;;;;;20.20;8.90;;;;;;;13.85;69.12;101310.11;106364;1260;69104;-89
2024/02/24 15:43:58;;;;;;;20.90;11.00;;;;;;;13.82;69.79;101310.35;106395;1254;71191;-89
2024/02/24 15:46:38;;;;;;;21.60;13.40;;;;;;;13.79;70.39;101317.17;106286;1260;60983;-85
2024/02/24 15:49:12;;;;;;;17.70;9.80;;;;;;;13.75;70.80;101315.05;106401;1255;60351;-89
2024/02/24 15:51:50;;;;;;;26.70;11.00;;;;;;;13.79;70.78;101320.52;106381;1255;75553;-89
2024/02/24 15:54:30;;;;;;;16.00;7.80;;;;;;;13.79;70.80;101323.27;106378;1254;71112;-89
2024/02/24 15:57:10;;;;;;;15.70;8.00;;;;;;;13.75;70.80;101326.41;106404;1256;74106;-84
2024/02/24 15:59:44;;;;;;;14.20;8.20;;;;;;;13.76;71.01;101327.68;106678;1253;61868;-84
2024/02/24 16:02:18;;;;;;;17.50;10.50;;;;;;;13.73;71.14;101326.55;106418;1254;60924;-85
2024/02/24 16:04:58;;;;;;;15.90;8.30;;;;;;;13.70;71.30;101330.83;106283;1254;75358;-85
2024/02/24 16:07:38;;;;;;;28.90;11.40;;;;;;;13.70;71.63;101325.77;106796;1258;70693;-89
2024/02/24 16:10:12;;;;;;;14.50;8.00;;;;;;;13.72;71.50;101328.46;106549;1254;73026;-85
2024/02/24 16:12:47;;;;;;;17.70;8.70;;;;;;;13.69;72.22;101334.67;106370;1253;61160;-86
2024/02/24 16:15:27;;;;;;;20.00;9.00;;;;;;;13.64;72.67;101333.31;106579;1257;60319;-88
2024/02/24 16:18:07;;;;;;;19.60;9.90;;;;;;;13.58;72.78;101337.77;106405;1258;75834;-84
2024/02/24 16:20:42;;;;;;;17.80;8.70;;;;;;;13.52;72.87;101336.58;106280;1257;69522;-85
2024/02/24 16:23:18;;;;;;;20.60;11.00;;;;;;;13.52;72.82;101334.88;106343;1257;75900;-88
2024/02/24 16:25:58;;;;;;;36.50;13.10;;;;;;;13.47;73.18;101343.45;106339;1254;62403;-88
2024/02/24 16:28:38;;;;;;;21.30;9.20;;;;;;;13.50;73.05;101344.94;106369;1253;60909;-84
2024/02/24 16:31:12;;;;;;;23.20;9.70;;;;;;;13.48;73.36;101351.30;106281;1254;74586;-89
2024/02/24 16:33:46;;;;;;;16.80;7.20;;;;;;;13.43;73.45;101350.48;106327;1251;69238;-90
2024/02/24 16:36:27;;;;;;;20.70;9.80;;;;;;;13.47;73.50;101351.20;106324;1254;73467;-85
2024/02/24 16:39:11;;;;;;;16.70;9.20;;;;;;;13.56;72.54;101352.29;106397;1253;61591;-84
2024/02/24 16:41:52;;;;;;;16.30;8.50;;;;;;;13.62;72.24;101361.17;106389;1259;61022;-88
2024/02/24 16:44:21;;;;;;;21.30;8.60;;;;;;;13.64;71.83;101362.42;106211;1254;75719;-85
2024/02/24 16:47:01;;;;;;;36.90;13.00;;;;;;;13.66;70.97;101364.34;106329;1260;69669;-86
2024/02/24 16:49:41;;;;;;;25.50;10.10;;;;;;;13.65;70.61;101360.88;106203;1257;73678;-88
2024/02/24 16:52:21;;;;;;;75.00;43.00;;;;;;;13.65;70.27;101361.65;106335;1255;62329;-88
2024/02/24 16:54:49;;;;;;;70.00;40.10;;;;;;;13.66;69.52;101360.39;106416;1260;61162;-88
2024/02/24 16:57:29;;;;;;;35.90;13.90;;;;;;;13.63;69.47;101364.19;106411;1254;74710;-84
2024/02/24 17:00:10;;;;;;;32.20;11.60;;;;;;;13.60;69.16;101367.55;106545;1258;69525;-84
2024/02/24 17:02:44;;;;;;;20.30;9.40;;;;;;;13.55;68.98;101368.93;106321;1254;74757;-88
2024/02/24 17:05:19;;;;;;;34.30;13.90;;;;;;;13.58;68.83;101368.98;106465;1260;62643;-89
2024/02/24 17:07:59;;;;;;;34.90;21.50;;;;;;;13.59;68.48;101368.64;106158;1260;60699;-89
2024/02/24 17:10:39;;;;;;;22.90;13.80;;;;;;;13.51;68.81;101371.62;106456;1251;75879;-88
2024/02/24 17:13:13;;;;;;;25.00;10.90;;;;;;;13.51;68.78;101366.58;106536;1254;69655;-84
2024/02/24 17:15:47;;;;;;;25.80;10.40;;;;;;;13.49;68.83;101366.85;106380;1257;74744;-83
2024/02/24 17:18:21;;;;;;;24.30;9.90;;;;;;;13.51;68.83;101370.80;106268;1254;63953;-83
2024/02/24 17:21:06;;;;;;;20.50;9.00;;;;;;;13.55;67.94;101374.26;106159;1257;61993;-88
2024/02/24 17:23:41;;;;;;;35.10;18.40;;;;;;;13.56;67.70;101374.24;106541;1251;76040;-83
2024/02/24 17:26:19;;;;;;;27.70;18.00;;;;;;;13.51;67.90;101374.43;106456;1254;69823;-83
2024/02/24 17:28:59;;;;;;;25.70;12.00;;;;;;;13.42;68.38;101373.60;106348;1256;73757;-83
2024/02/24 17:31:39;;;;;;;26.90;8.90;;;;;;;13.37;68.42;101374.60;106103;1254;64081;-83
2024/02/24 17:34:14;;;;;;;14.30;7.30;;;;;;;13.38;68.67;101372.35;106294;1257;62496;-83
2024/02/24 17:36:51;;;;;;;17.70;7.50;;;;;;;13.30;68.65;101367.95;106463;1253;74754;-86
2024/02/24 17:39:31;;;;;;;31.00;15.00;;;;;;;13.26;68.55;101371.67;106261;1258;70197;-86
2024/02/24 17:42:12;;;;;;;18.10;11.10;;;;;;;13.24;68.58;101370.23;106285;1254;74584;-87
2024/02/24 17:44:52;;;;;;;24.60;10.20;;;;;;;13.17;68.65;101372.92;106164;1253;60898;-87
2024/02/24 17:47:21;;;;;;;28.90;11.70;;;;;;;13.18;68.65;101371.88;106406;1256;60810;-88
2024/02/24 17:50:01;;;;;;;22.20;8.90;;;;;;;13.21;67.86;101376.34;106432;1257;76278;-87
2024/02/24 17:52:41;;;;;;;33.80;11.50;;;;;;;13.24;67.81;101384.24;106394;1251;69269;-87
2024/02/24 17:55:15;;;;;;;23.50;11.00;;;;;;;13.19;67.34;101379.77;106296;1258;73433;-87
2024/02/24 17:57:52;;;;;;;29.70;12.10;;;;;;;13.17;67.24;101384.95;106334;1257;60438;-83
2024/02/24 18:00:32;;;;;;;30.50;10.90;;;;;;;13.15;66.93;101381.49;106220;1253;61156;-86
2024/02/24 18:03:14;;;;;;;27.00;10.90;;;;;;;13.11;67.09;101388.13;106292;1252;77330;-82
2024/02/24 18:05:48;;;;;;;24.80;10.20;;;;;;;13.14;67.13;101386.48;106341;1259;70897;-86
2024/02/24 18:08:22;;;;;;;27.90;12.10;;;;;;;13.02;67.36;101386.97;106294;1254;74403;-82
2024/02/24 18:11:02;;;;;;;19.50;8.60;;;;;;;13.02;67.29;101392.23;106441;1254;61090;-88
2024/02/24 18:13:42;;;;;;;27.60;12.30;;;;;;;13.07;66.98;101397.12;106294;1254;61853;-87
2024/02/24 18:16:16;;;;;;;18.20;8.00;;;;;;;13.02;66.75;101402.89;106443;1258;74859;-82
2024/02/24 18:18:50;;;;;;;71.20;33.00;;;;;;;13.04;66.49;101408.27;106397;1256;69744;-82
2024/02/24 18:21:30;;;;;;;61.00;30.00;;;;;;;13.02;66.36;101412.33;106180;1256;74868;-82
2024/02/24 18:24:11;;;;;;;80.90;37.50;;;;;;;13.02;66.23;101413.40;106210;1260;61394;-88
2024/02/24 18:26:45;;;;;;;25.70;10.40;;;;;;;12.99;66.04;101413.95;106484;1254;62093;-84